createdAt,value
2022-12-01T00:00:05.880Z,57.95
2022-12-01T00:02:32.627Z,61.78
2022-12-01T00:04:59.320Z,62.65
2022-12-01T00:07:25.937Z,58.25
2022-12-01T00:09:52.572Z,54.65
2022-12-01T00:12:19.165Z,58.92
2022-12-01T00:14:45.832Z,57.70
2022-12-01T00:17:12.527Z,59.10
2022-12-01T00:19:39.097Z,56.30
2022-12-01T00:22:05.658Z,56.20
2022-12-01T00:24:32.315Z,52.28
2022-12-01T00:26:59.053Z,57.15
2022-12-01T00:29:25.894Z,50.90
2022-12-01T00:31:52.551Z,55.83
2022-12-01T00:34:23.428Z,59.92
2022-12-01T00:36:50.465Z,58.75
2022-12-01T00:39:17.403Z,62.72
2022-12-01T00:41:44.098Z,52.63
2022-12-01T00:44:10.847Z,63.90
2022-12-01T00:46:37.423Z,62.17
2022-12-01T00:49:04.029Z,63.78
2022-12-01T00:51:30.648Z,61.47
2022-12-01T00:53:57.542Z,66.03
2022-12-01T00:56:24.186Z,61.88
2022-12-01T00:58:50.802Z,60.25
2022-12-01T01:01:17.601Z,64.72
2022-12-01T01:03:44.315Z,61.78
2022-12-01T01:06:11.394Z,60.70
2022-12-01T01:08:38.362Z,57.30
2022-12-01T01:11:05.208Z,58.53
2022-12-01T01:13:32.161Z,61.97
2022-12-01T01:16:06.904Z,59.67
2022-12-01T01:18:33.736Z,64.75
2022-12-01T01:21:04.758Z,63.58
2022-12-01T01:23:31.489Z,63.65
2022-12-01T01:26:05.821Z,61.55
2022-12-01T01:28:32.557Z,62.22
2022-12-01T01:30:59.519Z,60.50
2022-12-01T01:33:26.377Z,59.30
2022-12-01T01:35:52.969Z,61.08
2022-12-01T01:38:19.593Z,59.50
2022-12-01T01:40:46.504Z,64.13
2022-12-01T01:43:16.967Z,64.30
2022-12-01T01:45:43.785Z,56.00
2022-12-01T01:48:11.748Z,59.10
2022-12-01T01:50:38.364Z,59.10
2022-12-01T01:53:08.601Z,55.95
2022-12-01T01:55:35.572Z,59.42
2022-12-01T01:58:03.822Z,52.30
2022-12-01T02:03:09.591Z,54.72
2022-12-01T02:05:36.211Z,53.80
2022-12-01T02:08:03.697Z,60.03
2022-12-01T02:10:52.422Z,57.72
2022-12-01T02:13:33.798Z,59.72
2022-12-01T02:16:11.284Z,57.22
2022-12-01T02:18:57.421Z,52.88
2022-12-01T02:21:33.643Z,60.00
2022-12-01T02:27:05.120Z,55.90
2022-12-01T02:29:43.751Z,54.97
2022-12-01T02:32:13.345Z,56.15
2022-12-01T02:34:59.347Z,59.90
2022-12-01T02:37:33.801Z,57.00
2022-12-01T02:40:04.110Z,58.35
2022-12-01T02:42:39.579Z,64.68
2022-12-01T02:45:09.774Z,56.03
2022-12-01T02:47:36.845Z,60.95
2022-12-01T02:50:03.790Z,55.30
2022-12-01T02:52:30.400Z,62.70
2022-12-01T02:54:56.999Z,62.95
2022-12-01T02:57:24.235Z,66.15
2022-12-01T02:59:52.856Z,60.50
2022-12-01T03:02:27.294Z,61.13
2022-12-01T03:05:00.517Z,63.75
2022-12-01T03:07:42.571Z,62.92
2022-12-01T03:10:27.204Z,66.82
2022-12-01T03:13:38.982Z,62.67
2022-12-01T03:16:11.417Z,60.83
2022-12-01T03:18:59.745Z,67.53
2022-12-01T03:21:38.613Z,70.65
2022-12-01T03:24:16.154Z,60.45
2022-12-01T03:26:44.517Z,70.65
2022-12-01T03:29:16.082Z,67.47
2022-12-01T03:31:45.402Z,66.00
2022-12-01T03:34:14.829Z,77.78
2022-12-01T03:36:47.830Z,72.95
2022-12-01T03:39:20.858Z,65.10
2022-12-01T03:41:51.380Z,69.00
2022-12-01T03:44:20.916Z,74.43
2022-12-01T03:46:59.447Z,70.90
2022-12-01T03:49:26.076Z,70.20
2022-12-01T03:52:34.553Z,78.45
2022-12-01T03:55:15.249Z,79.55
2022-12-01T03:57:49.012Z,78.35
2022-12-01T04:00:15.925Z,73.68
2022-12-01T04:02:42.649Z,77.82
2022-12-01T04:05:09.337Z,78.35
2022-12-01T04:07:36.979Z,86.15
2022-12-01T04:10:04.889Z,87.15
2022-12-01T04:12:32.938Z,86.05
2022-12-01T04:15:03.249Z,87.57
2022-12-01T04:17:32.308Z,82.53
2022-12-01T04:19:59.547Z,84.07
2022-12-01T04:22:26.957Z,89.35
2022-12-01T04:24:54.332Z,91.18
2022-12-01T04:27:22.342Z,91.95
2022-12-01T04:29:50.684Z,85.25
2022-12-01T04:32:18.001Z,100.05
2022-12-01T04:34:44.869Z,88.13
2022-12-01T04:37:15.534Z,90.70
2022-12-01T04:39:43.530Z,94.75
2022-12-01T04:42:10.582Z,91.80
2022-12-01T04:44:39.316Z,97.72
2022-12-01T04:47:06.479Z,99.05
2022-12-01T04:49:35.354Z,102.40
2022-12-01T04:52:03.112Z,98.50
2022-12-01T04:54:30.086Z,96.32
2022-12-01T04:56:58.411Z,97.75
2022-12-01T04:59:27.082Z,101.05
2022-12-01T05:01:54.613Z,102.18
2022-12-01T05:04:22.381Z,102.70
2022-12-01T05:06:49.752Z,103.03
2022-12-01T05:09:18.115Z,106.50
2022-12-01T05:11:46.142Z,97.65
2022-12-01T05:14:12.775Z,106.25
2022-12-01T05:16:39.767Z,99.43
2022-12-01T05:19:06.519Z,100.40
2022-12-01T05:21:33.357Z,105.70
2022-12-01T05:24:03.282Z,106.05
2022-12-01T05:26:33.648Z,105.72
2022-12-01T05:29:00.849Z,98.90
2022-12-01T05:31:27.515Z,100.97
2022-12-01T05:33:54.184Z,94.68
2022-12-01T05:36:20.975Z,103.47
2022-12-01T05:38:47.541Z,87.30
2022-12-01T05:41:14.705Z,96.97
2022-12-01T05:43:41.341Z,99.55
2022-12-01T05:46:08.012Z,91.57
2022-12-01T05:48:34.689Z,92.32
2022-12-01T05:51:10.573Z,86.65
2022-12-01T05:53:37.314Z,87.25
2022-12-01T05:56:04.413Z,91.10
2022-12-01T05:58:31.047Z,95.72
2022-12-01T06:00:57.658Z,90.70
2022-12-01T06:03:24.304Z,80.55
2022-12-01T06:05:51.091Z,84.10
2022-12-01T06:08:17.802Z,86.78
2022-12-01T06:10:44.519Z,82.25
2022-12-01T06:13:11.172Z,77.78
2022-12-01T06:15:38.071Z,73.20
2022-12-01T06:18:05.918Z,82.03
2022-12-01T06:20:32.616Z,74.60
2022-12-01T06:22:59.406Z,72.55
2022-12-01T06:25:26.053Z,77.03
2022-12-01T06:27:57.621Z,82.45
2022-12-01T06:30:24.771Z,82.50
2022-12-01T06:32:51.892Z,87.93
2022-12-01T06:35:18.700Z,81.75
2022-12-01T06:37:45.469Z,78.22
2022-12-01T06:40:12.502Z,77.28
2022-12-01T06:42:39.180Z,77.15
2022-12-01T06:45:06.315Z,80.03
2022-12-01T06:47:32.978Z,80.63
2022-12-01T06:49:59.804Z,75.53
2022-12-01T06:52:26.536Z,83.10
2022-12-01T06:54:53.237Z,79.32
2022-12-01T06:57:20.311Z,81.45
2022-12-01T06:59:47.742Z,76.97
2022-12-01T07:02:14.971Z,81.43
2022-12-01T07:04:41.655Z,79.10
2022-12-01T07:07:08.334Z,83.10
2022-12-01T07:09:35.005Z,79.78
2022-12-01T07:12:01.689Z,80.53
2022-12-01T07:14:29.620Z,84.40
2022-12-01T07:16:56.292Z,85.18
2022-12-01T07:19:22.972Z,82.43
2022-12-01T07:21:49.657Z,84.85
2022-12-01T07:24:16.475Z,84.32
2022-12-01T07:26:43.348Z,103.05
2022-12-01T07:29:10.291Z,93.80
2022-12-01T07:31:38.054Z,98.47
2022-12-01T07:34:04.899Z,89.53
2022-12-01T07:36:31.618Z,101.88
2022-12-01T07:38:58.279Z,95.93
2022-12-01T07:41:25.094Z,98.72
2022-12-01T07:43:51.795Z,98.20
2022-12-01T07:46:24.011Z,95.70
2022-12-01T07:48:51.507Z,100.57
2022-12-01T07:51:18.399Z,110.10
2022-12-01T07:53:45.504Z,97.93
2022-12-01T07:56:12.242Z,93.25
2022-12-01T07:58:38.918Z,108.05
2022-12-01T08:01:10.238Z,107.53
2022-12-01T08:03:37.282Z,102.72
2022-12-01T08:06:04.276Z,108.40
2022-12-01T08:08:31.630Z,104.95
2022-12-01T08:11:02.704Z,103.57
2022-12-01T08:13:29.514Z,114.32
2022-12-01T08:15:56.399Z,109.38
2022-12-01T08:18:23.397Z,105.57
2022-12-01T08:20:50.719Z,107.88
2022-12-01T08:23:17.321Z,104.25
2022-12-01T08:25:43.923Z,112.32
2022-12-01T08:28:10.509Z,116.43
2022-12-01T08:30:37.096Z,105.47
2022-12-01T08:33:03.887Z,105.75
2022-12-01T08:35:30.649Z,99.65
2022-12-01T08:37:57.208Z,108.20
2022-12-01T08:40:23.941Z,112.10
2022-12-01T08:42:52.005Z,110.25
2022-12-01T08:45:18.692Z,103.22
2022-12-01T08:47:45.341Z,107.95
2022-12-01T08:50:12.065Z,103.60
2022-12-01T08:52:38.708Z,97.90
2022-12-01T08:55:06.075Z,84.72
2022-12-01T08:57:32.712Z,90.43
2022-12-01T08:59:59.353Z,92.05
2022-12-01T09:02:26.022Z,96.88
2022-12-01T09:04:52.712Z,90.10
2022-12-01T09:07:25.912Z,87.50
2022-12-01T09:09:53.145Z,85.80
2022-12-01T09:12:19.789Z,80.03
2022-12-01T09:14:46.474Z,90.13
2022-12-01T09:17:15.912Z,77.55
2022-12-01T09:19:43.314Z,84.63
2022-12-01T09:22:10.607Z,87.13
2022-12-01T09:24:37.388Z,73.55
2022-12-01T09:27:04.299Z,75.72
2022-12-01T09:29:31.016Z,81.75
2022-12-01T09:31:58.329Z,80.00
2022-12-01T09:34:25.141Z,71.20
2022-12-01T09:36:51.775Z,72.40
2022-12-01T09:39:19.409Z,70.38
2022-12-01T09:41:54.630Z,73.00
2022-12-01T09:44:43.081Z,73.15
2022-12-01T09:47:31.070Z,64.80
2022-12-01T09:50:01.027Z,60.15
2022-12-01T09:52:29.207Z,56.88
2022-12-01T09:54:56.028Z,56.30
2022-12-01T09:57:32.017Z,54.63
2022-12-01T10:02:33.769Z,49.90
2022-12-01T10:05:02.961Z,50.60
2022-12-01T10:07:43.891Z,48.10
2022-12-01T10:10:31.255Z,44.03
2022-12-01T10:12:57.896Z,48.13
2022-12-01T10:15:55.672Z,45.80
2022-12-01T10:18:25.238Z,47.75
2022-12-01T10:20:53.781Z,45.67
2022-12-01T10:23:38.425Z,41.58
2022-12-01T10:26:10.198Z,46.75
2022-12-01T10:29:15.134Z,42.85
2022-12-01T10:31:56.193Z,42.17
2022-12-01T10:34:25.593Z,44.55
2022-12-01T10:36:52.257Z,44.08
2022-12-01T10:39:23.410Z,41.35
2022-12-01T10:41:50.085Z,42.40
2022-12-01T10:44:17.260Z,41.00
2022-12-01T10:46:49.556Z,42.58
2022-12-01T10:49:17.179Z,49.22
2022-12-01T10:51:50.843Z,46.60
2022-12-01T10:54:17.490Z,41.83
2022-12-01T10:56:46.600Z,45.03
2022-12-01T10:59:31.287Z,43.55
2022-12-01T11:01:58.389Z,42.38
2022-12-01T11:04:51.146Z,43.80
2022-12-01T11:07:32.474Z,43.90
2022-12-01T11:10:14.235Z,45.20
2022-12-01T11:12:41.091Z,44.55
2022-12-01T11:15:07.932Z,43.08
2022-12-01T11:17:43.707Z,44.78
2022-12-01T11:23:17.648Z,41.50
2022-12-01T11:26:03.951Z,40.28
2022-12-01T11:28:30.864Z,43.47
2022-12-01T11:31:08.544Z,40.20
2022-12-01T11:33:52.329Z,41.95
2022-12-01T11:36:42.404Z,40.60
2022-12-01T11:39:23.976Z,38.90
2022-12-01T11:41:55.250Z,36.92
2022-12-01T11:44:49.827Z,36.42
2022-12-01T11:47:23.275Z,36.17
2022-12-01T11:49:56.169Z,35.92
2022-12-01T11:52:23.645Z,36.63
2022-12-01T11:55:16.665Z,35.60
2022-12-01T11:57:44.488Z,36.50
2022-12-01T12:00:19.490Z,37.75
2022-12-01T12:02:51.550Z,36.70
2022-12-01T12:05:45.934Z,38.78
2022-12-01T12:08:22.844Z,36.15
2022-12-01T12:11:18.069Z,32.55
2022-12-01T12:13:44.605Z,34.80
2022-12-01T12:16:36.777Z,36.28
2022-12-01T12:19:33.897Z,34.67
2022-12-01T12:22:12.709Z,40.40
2022-12-01T12:24:52.147Z,35.70
2022-12-01T12:27:32.286Z,36.97
2022-12-01T12:30:23.740Z,37.13
2022-12-01T12:33:22.051Z,34.65
2022-12-01T12:35:51.453Z,31.88
2022-12-01T12:38:42.599Z,35.70
2022-12-01T12:41:30.178Z,34.17
2022-12-01T12:44:36.757Z,40.45
2022-12-01T12:47:10.352Z,37.00
2022-12-01T12:49:43.028Z,34.53
2022-12-01T12:52:21.164Z,37.60
2022-12-01T12:54:53.289Z,33.35
2022-12-01T12:57:25.561Z,33.30
2022-12-01T13:00:03.053Z,34.40
2022-12-01T13:02:53.333Z,34.80
2022-12-01T13:05:33.246Z,33.58
2022-12-01T13:08:08.419Z,34.50
2022-12-01T13:11:06.873Z,33.90
2022-12-01T13:13:47.023Z,34.63
2022-12-01T13:16:22.318Z,32.95
2022-12-01T13:18:55.044Z,32.28
2022-12-01T13:21:22.418Z,34.58
2022-12-01T13:23:49.844Z,32.65
2022-12-01T13:26:17.936Z,31.67
2022-12-01T13:28:45.910Z,36.00
2022-12-01T13:31:16.170Z,37.17
2022-12-01T13:33:56.723Z,36.28
2022-12-01T13:36:45.790Z,34.17
2022-12-01T13:39:33.559Z,34.35
2022-12-01T13:42:03.008Z,34.95
2022-12-01T13:44:53.105Z,38.75
2022-12-01T13:47:19.763Z,36.40
2022-12-01T13:49:50.196Z,35.65
2022-12-01T13:52:22.941Z,36.58
2022-12-01T13:55:08.655Z,40.75
2022-12-01T13:57:49.634Z,37.95
2022-12-01T14:00:23.648Z,40.20
2022-12-01T14:03:12.206Z,43.42
2022-12-01T14:06:05.072Z,40.63
2022-12-01T14:08:45.446Z,38.05
2022-12-01T14:11:23.301Z,38.85
2022-12-01T14:14:06.437Z,43.63
2022-12-01T14:16:52.925Z,39.75
2022-12-01T14:19:47.253Z,35.95
2022-12-01T14:22:32.435Z,38.42
2022-12-01T14:24:59.055Z,38.72
2022-12-01T14:27:42.473Z,37.88
2022-12-01T14:30:41.489Z,39.45
2022-12-01T14:33:39.148Z,47.42
2022-12-01T14:36:07.589Z,42.92
2022-12-01T14:38:34.162Z,41.17
2022-12-01T14:41:00.801Z,45.05
2022-12-01T14:43:27.411Z,40.10
2022-12-01T14:46:01.480Z,41.15
2022-12-01T14:48:44.551Z,39.00
2022-12-01T14:51:18.206Z,42.65
2022-12-01T14:53:59.228Z,37.35
2022-12-01T14:56:27.903Z,37.63
2022-12-01T14:58:59.729Z,39.90
2022-12-01T15:01:31.779Z,41.97
2022-12-01T15:03:59.148Z,38.72
2022-12-01T15:06:27.338Z,39.42
2022-12-01T15:11:59.246Z,36.83
2022-12-01T15:14:36.893Z,39.55
2022-12-01T15:17:04.091Z,36.13
2022-12-01T15:19:39.209Z,39.05
2022-12-01T15:22:13.854Z,39.95
2022-12-01T15:24:40.760Z,44.33
2022-12-01T15:27:29.052Z,37.90
2022-12-01T15:32:32.585Z,45.72
2022-12-01T15:35:00.351Z,41.67
2022-12-01T15:37:28.527Z,40.42
2022-12-01T15:40:54.025Z,42.17
2022-12-01T15:43:15.827Z,41.38
2022-12-01T15:46:11.708Z,41.22
2022-12-01T15:48:42.713Z,41.83
2022-12-01T15:51:25.605Z,37.45
2022-12-01T15:53:54.494Z,41.95
2022-12-01T15:56:38.637Z,45.90
2022-12-01T15:59:29.253Z,48.78
2022-12-01T16:01:56.903Z,44.40
2022-12-01T16:04:28.551Z,44.40
2022-12-01T16:07:05.956Z,46.33
2022-12-01T16:09:36.735Z,41.97
2022-12-01T16:12:12.849Z,44.97
2022-12-01T16:17:16.764Z,40.72
2022-12-01T16:19:43.471Z,43.75
2022-12-01T16:22:18.557Z,46.38
2022-12-01T16:24:55.066Z,47.13
2022-12-01T16:27:25.687Z,49.75
2022-12-01T16:29:57.387Z,47.45
2022-12-01T16:32:30.392Z,50.80
2022-12-01T16:34:58.434Z,49.20
2022-12-01T16:37:26.405Z,50.40
2022-12-01T16:39:53.032Z,54.40
2022-12-01T16:42:20.500Z,57.15
2022-12-01T16:44:47.656Z,54.92
2022-12-01T16:47:18.487Z,54.42
2022-12-01T16:49:45.165Z,50.30
2022-12-01T16:54:58.436Z,50.28
2022-12-01T16:57:25.083Z,55.80
2022-12-01T16:59:52.260Z,54.50
2022-12-01T17:02:18.906Z,56.05
2022-12-01T17:04:45.577Z,54.45
2022-12-01T17:07:12.221Z,51.97
2022-12-01T17:09:39.006Z,55.53
2022-12-01T17:12:05.973Z,57.63
2022-12-01T17:14:41.797Z,54.42
2022-12-01T17:17:11.024Z,53.30
2022-12-01T17:19:40.724Z,62.33
2022-12-01T17:22:07.539Z,57.50
2022-12-01T17:24:36.471Z,54.70
2022-12-01T17:27:05.990Z,59.17
2022-12-01T17:29:32.670Z,56.13
2022-12-01T17:31:59.294Z,55.40
2022-12-01T17:34:25.934Z,58.55
2022-12-01T17:36:52.625Z,54.53
2022-12-01T17:39:19.380Z,55.47
2022-12-01T17:41:46.043Z,56.78
2022-12-01T17:44:12.689Z,63.22
2022-12-01T17:46:39.449Z,62.97
2022-12-01T17:49:06.181Z,51.28
2022-12-01T17:51:32.964Z,53.45
2022-12-01T17:53:59.779Z,55.60
2022-12-01T17:56:26.423Z,57.00
2022-12-01T17:58:53.064Z,58.83
2022-12-01T18:01:23.045Z,60.47
2022-12-01T18:03:53.450Z,65.80
2022-12-01T18:06:20.259Z,56.45
2022-12-01T18:08:46.960Z,60.38
2022-12-01T18:11:15.406Z,56.05
2022-12-01T18:13:44.683Z,58.72
2022-12-01T18:16:16.918Z,58.45
2022-12-01T18:18:43.848Z,59.45
2022-12-01T18:21:12.029Z,63.05
2022-12-01T18:23:41.270Z,57.70
2022-12-01T18:26:15.441Z,60.88
2022-12-01T18:28:43.226Z,59.45
2022-12-01T18:31:14.678Z,64.57
2022-12-01T18:33:42.688Z,60.38
2022-12-01T18:36:13.680Z,62.17
2022-12-01T18:38:40.675Z,65.75
2022-12-01T18:41:07.630Z,60.55
2022-12-01T18:43:34.565Z,66.90
2022-12-01T18:46:03.151Z,65.18
2022-12-01T18:48:30.671Z,67.63
2022-12-01T18:51:02.207Z,62.88
2022-12-01T18:53:28.930Z,65.25
2022-12-01T18:55:55.854Z,56.45
2022-12-01T18:58:22.559Z,65.88
2022-12-01T19:00:49.433Z,58.08
2022-12-01T19:03:16.162Z,58.35
2022-12-01T19:05:42.860Z,60.28
2022-12-01T19:08:10.716Z,54.20
2022-12-01T19:10:37.538Z,59.67
2022-12-01T19:13:04.430Z,57.42
2022-12-01T19:15:31.026Z,59.97
2022-12-01T19:17:57.753Z,60.05
2022-12-01T19:20:24.413Z,57.72
2022-12-01T19:22:53.839Z,61.90
2022-12-01T19:25:20.584Z,58.92
2022-12-01T19:27:47.493Z,58.53
2022-12-01T19:30:14.248Z,60.83
2022-12-01T19:32:40.877Z,56.78
2022-12-01T19:35:07.885Z,63.08
2022-12-01T19:37:34.562Z,62.45
2022-12-01T19:40:01.244Z,58.30
2022-12-01T19:42:27.917Z,48.95
2022-12-01T19:44:54.670Z,62.50
2022-12-01T19:47:22.537Z,65.25
2022-12-01T19:49:49.418Z,50.78
2022-12-01T19:52:16.058Z,62.13
2022-12-01T19:54:42.753Z,60.75
2022-12-01T19:57:09.433Z,55.88
2022-12-01T19:59:36.085Z,57.55
2022-12-01T20:02:02.970Z,51.13
2022-12-01T20:04:29.825Z,56.70
2022-12-01T20:06:56.950Z,55.15
2022-12-01T20:09:26.627Z,55.13
2022-12-01T20:11:53.639Z,54.65
2022-12-01T20:14:20.443Z,53.67
2022-12-01T20:16:47.428Z,52.80
2022-12-01T20:19:14.229Z,55.25
2022-12-01T20:21:41.155Z,57.35
2022-12-01T20:24:10.151Z,54.85
2022-12-01T20:26:47.243Z,55.25
2022-12-01T20:29:18.986Z,54.88
2022-12-01T20:31:45.947Z,64.35
2022-12-01T20:34:24.523Z,52.70
2022-12-01T20:36:52.288Z,48.55
2022-12-01T20:39:19.246Z,53.75
2022-12-01T20:41:46.053Z,58.72
2022-12-01T20:44:13.389Z,59.47
2022-12-01T20:46:40.151Z,53.65
2022-12-01T20:49:06.817Z,60.97
2022-12-01T20:51:34.698Z,58.20
2022-12-01T20:56:49.066Z,54.35
2022-12-01T20:59:16.149Z,56.45
2022-12-01T21:01:43.138Z,53.13
2022-12-01T21:04:09.868Z,58.50
2022-12-01T21:06:36.578Z,55.25
2022-12-01T21:09:03.856Z,55.95
2022-12-01T21:11:34.467Z,57.90
2022-12-01T21:14:01.167Z,61.42
2022-12-01T21:16:31.951Z,54.85
2022-12-01T21:19:04.840Z,54.45
2022-12-01T21:21:35.020Z,55.55
2022-12-01T21:24:07.918Z,62.80
2022-12-01T21:26:38.212Z,59.50
2022-12-01T21:29:24.351Z,57.42
2022-12-01T21:31:52.918Z,60.50
2022-12-01T21:34:24.404Z,58.72
2022-12-01T21:36:53.137Z,58.28
2022-12-01T21:39:21.177Z,54.42
2022-12-01T21:41:53.704Z,58.03
2022-12-01T21:44:21.649Z,52.83
2022-12-01T21:46:53.412Z,56.78
2022-12-01T21:49:21.512Z,61.95
2022-12-01T21:51:51.666Z,56.90
2022-12-01T21:54:21.771Z,69.72
2022-12-01T21:56:54.398Z,66.25
2022-12-01T21:59:24.060Z,65.72
2022-12-01T22:01:54.837Z,70.38
2022-12-01T22:04:25.912Z,64.80
2022-12-01T22:06:54.876Z,59.67
2022-12-01T22:09:30.568Z,67.85
2022-12-01T22:12:05.166Z,63.45
2022-12-01T22:14:35.571Z,76.88
2022-12-01T22:17:08.280Z,69.20
2022-12-01T22:19:38.944Z,59.50
2022-12-01T22:22:08.801Z,67.85
2022-12-01T22:24:39.171Z,75.13
2022-12-01T22:27:09.624Z,65.82
2022-12-01T22:29:40.291Z,66.45
2022-12-01T22:32:12.905Z,62.78
2022-12-01T22:34:52.244Z,65.10
2022-12-01T22:37:23.993Z,66.70
2022-12-01T22:39:59.638Z,65.82
2022-12-01T22:42:33.385Z,68.63
2022-12-01T22:45:21.422Z,65.53
2022-12-01T22:47:48.183Z,64.28
2022-12-01T22:50:31.485Z,66.30
2022-12-01T22:53:16.882Z,62.47
2022-12-01T22:55:43.753Z,62.63
2022-12-01T22:58:22.794Z,68.20
2022-12-01T23:00:49.601Z,64.80
2022-12-01T23:03:16.401Z,67.20
2022-12-01T23:05:43.937Z,64.68
2022-12-01T23:08:11.213Z,65.10
2022-12-01T23:10:38.223Z,63.70
2022-12-01T23:13:16.485Z,65.22
2022-12-01T23:15:47.425Z,67.10
2022-12-01T23:18:19.919Z,72.22
2022-12-01T23:20:48.219Z,62.80
2022-12-01T23:23:22.320Z,69.60
2022-12-01T23:25:49.859Z,68.50
2022-12-01T23:28:16.551Z,65.70
2022-12-01T23:30:44.385Z,71.85
2022-12-01T23:33:19.197Z,69.55
2022-12-01T23:35:47.025Z,74.55
2022-12-01T23:38:25.070Z,75.70
2022-12-01T23:40:52.689Z,74.55
2022-12-01T23:43:24.291Z,70.38
2022-12-01T23:45:56.033Z,68.90
2022-12-01T23:48:25.323Z,78.15
2022-12-01T23:50:53.089Z,80.85
2022-12-01T23:53:30.525Z,75.63
2022-12-01T23:56:01.096Z,77.13
2022-12-01T23:58:28.157Z,78.63
